createdAt,value
2023-04-10T00:01:40.515Z,5.10
2023-04-10T00:04:09.752Z,5.10
2023-04-10T00:06:38.398Z,5.20
2023-04-10T00:09:06.842Z,5.30
2023-04-10T00:11:35.486Z,5.30
2023-04-10T00:14:05.439Z,5.40
2023-04-10T00:16:33.908Z,5.40
2023-04-10T00:19:02.401Z,5.40
2023-04-10T00:21:31.372Z,5.40
2023-04-10T00:23:59.792Z,5.50
2023-04-10T00:26:28.194Z,5.50
2023-04-10T00:28:56.745Z,5.50
2023-04-10T00:31:26.673Z,5.50
2023-04-10T00:33:55.433Z,5.40
2023-04-10T00:36:24.135Z,5.50
2023-04-10T00:38:52.761Z,5.50
2023-04-10T00:41:21.297Z,5.50
2023-04-10T00:43:49.712Z,5.50
2023-04-10T00:46:18.347Z,5.40
2023-04-10T00:48:48.231Z,5.40
2023-04-10T00:51:16.665Z,5.30
2023-04-10T00:53:45.407Z,5.40
2023-04-10T00:56:13.877Z,5.30
2023-04-10T00:58:42.294Z,5.30
2023-04-10T01:01:11.504Z,5.30
2023-04-10T01:03:41.091Z,5.30
2023-04-10T01:06:26.668Z,5.20
2023-04-10T01:09:00.140Z,5.20
2023-04-10T01:11:43.443Z,5.00
2023-04-10T01:14:17.755Z,4.90
2023-04-10T01:16:52.300Z,5.00
2023-04-10T01:19:37.383Z,5.10
2023-04-10T01:22:10.595Z,5.10
2023-04-10T01:24:51.911Z,5.20
2023-04-10T01:27:31.422Z,5.20
2023-04-10T01:30:03.167Z,5.20
2023-04-10T01:32:34.233Z,5.20
2023-04-10T01:35:06.647Z,5.20
2023-04-10T01:37:39.381Z,5.20
2023-04-10T01:40:11.544Z,5.10
2023-04-10T01:42:44.381Z,5.10
2023-04-10T01:45:19.008Z,5.10
2023-04-10T01:47:47.712Z,5.10
2023-04-10T01:50:16.875Z,4.90
2023-04-10T01:52:45.768Z,5.00
2023-04-10T01:55:14.264Z,5.00
2023-04-10T01:57:42.693Z,4.90
2023-04-10T02:00:12.286Z,5.00
2023-04-10T02:02:42.884Z,5.00
2023-04-10T02:05:11.925Z,5.00
2023-04-10T02:07:45.867Z,5.00
2023-04-10T02:10:16.685Z,5.00
2023-04-10T02:12:48.124Z,5.00
2023-04-10T02:15:18.450Z,5.00
2023-04-10T02:17:49.265Z,4.80
2023-04-10T02:20:19.414Z,4.80
2023-04-10T02:22:48.334Z,4.90
2023-04-10T02:25:17.739Z,4.90
2023-04-10T02:27:46.371Z,4.90
2023-04-10T02:30:14.874Z,4.80
2023-04-10T02:32:44.116Z,4.80
2023-04-10T02:35:14.167Z,4.80
2023-04-10T02:37:42.838Z,4.90
2023-04-10T02:40:12.025Z,4.80
2023-04-10T02:42:40.501Z,4.90
2023-04-10T02:45:10.293Z,4.90
2023-04-10T02:47:38.788Z,4.90
2023-04-10T02:50:08.076Z,4.70
2023-04-10T02:52:37.846Z,4.70
2023-04-10T02:55:07.166Z,4.70
2023-04-10T02:57:36.319Z,4.70
2023-04-10T03:00:05.314Z,4.70
2023-04-10T03:02:33.971Z,4.70
2023-04-10T03:05:03.309Z,4.50
2023-04-10T03:07:32.304Z,4.50
2023-04-10T03:10:02.132Z,4.50
2023-04-10T03:12:30.562Z,4.40
2023-04-10T03:14:59.028Z,4.40
2023-04-10T03:17:27.505Z,4.40
2023-04-10T03:19:55.930Z,4.40
2023-04-10T03:22:24.409Z,4.30
2023-04-10T03:24:52.829Z,4.30
2023-04-10T03:27:22.726Z,4.20
2023-04-10T03:29:51.118Z,4.20
2023-04-10T03:32:19.514Z,4.20
2023-04-10T03:34:48.053Z,4.20
2023-04-10T03:37:16.471Z,4.10
2023-04-10T03:39:44.937Z,4.10
2023-04-10T03:42:13.420Z,4.10
2023-04-10T03:44:43.204Z,4.00
2023-04-10T03:47:12.272Z,4.10
2023-04-10T03:49:40.812Z,4.00
2023-04-10T03:52:09.352Z,4.10
2023-04-10T03:54:37.830Z,4.00
2023-04-10T03:57:06.841Z,3.90
2023-04-10T03:59:38.860Z,3.80
2023-04-10T04:02:09.683Z,3.80
2023-04-10T04:04:38.395Z,3.80
2023-04-10T04:07:06.869Z,3.80
2023-04-10T04:09:35.402Z,3.80
2023-04-10T04:12:03.894Z,3.70
2023-04-10T04:14:32.396Z,3.70
2023-04-10T04:17:01.068Z,3.60
2023-04-10T04:19:31.093Z,3.60
2023-04-10T04:22:00.496Z,3.50
2023-04-10T04:24:28.980Z,3.50
2023-04-10T04:26:57.612Z,3.50
2023-04-10T04:29:26.102Z,3.50
2023-04-10T04:31:54.553Z,3.50
2023-04-10T04:34:23.002Z,3.50
2023-04-10T04:36:52.792Z,3.60
2023-04-10T04:39:23.181Z,3.60
2023-04-10T04:41:51.661Z,3.50
2023-04-10T04:44:20.440Z,3.50
2023-04-10T04:46:48.855Z,3.50
2023-04-10T04:49:17.273Z,3.40
2023-04-10T04:51:45.732Z,3.10
2023-04-10T04:54:15.496Z,3.10
2023-04-10T04:56:43.952Z,3.00
2023-04-10T04:59:12.362Z,3.10
2023-04-10T05:01:40.913Z,3.00
2023-04-10T05:04:09.448Z,3.20
2023-04-10T05:06:38.091Z,3.20
2023-04-10T05:09:06.534Z,3.30
2023-04-10T05:11:36.546Z,3.50
2023-04-10T05:14:05.015Z,3.90
2023-04-10T05:16:33.433Z,4.30
2023-04-10T05:19:01.918Z,5.00
2023-04-10T05:21:31.298Z,5.60
2023-04-10T05:23:59.723Z,6.20
2023-04-10T05:26:28.106Z,6.70
2023-04-10T05:28:57.926Z,7.30
2023-04-10T05:31:26.549Z,7.80
2023-04-10T05:33:55.034Z,8.30
2023-04-10T05:36:23.452Z,8.80
2023-04-10T05:38:52.046Z,9.20
2023-04-10T05:41:20.714Z,9.50
2023-04-10T05:43:49.846Z,9.90
2023-04-10T05:46:19.704Z,10.30
2023-04-10T05:48:48.249Z,10.80
2023-04-10T05:51:16.656Z,11.10
2023-04-10T05:53:45.149Z,11.50
2023-04-10T05:56:13.559Z,11.60
2023-04-10T05:58:42.021Z,11.90
2023-04-10T06:01:11.427Z,12.10
2023-04-10T06:03:41.396Z,12.30
2023-04-10T06:06:10.009Z,12.40
2023-04-10T06:08:38.444Z,12.40
2023-04-10T06:11:07.243Z,12.40
2023-04-10T06:13:36.085Z,12.40
2023-04-10T06:16:05.515Z,12.50
2023-04-10T06:18:34.033Z,12.50
2023-04-10T06:21:03.849Z,12.90
2023-04-10T06:23:32.514Z,12.90
2023-04-10T06:26:01.736Z,13.20
2023-04-10T06:28:30.187Z,12.70
2023-04-10T06:30:58.639Z,12.80
2023-04-10T06:33:27.218Z,12.80
2023-04-10T06:35:56.037Z,12.90
2023-04-10T06:38:25.882Z,12.60
2023-04-10T06:40:54.386Z,12.90
2023-04-10T06:43:23.002Z,13.10
2023-04-10T06:45:51.436Z,13.10
2023-04-10T06:48:19.981Z,12.90
2023-04-10T06:50:48.522Z,12.90
2023-04-10T06:53:17.045Z,12.80
2023-04-10T06:55:46.877Z,12.80
2023-04-10T06:58:15.528Z,13.00
2023-04-10T07:00:43.987Z,13.20
2023-04-10T07:03:12.565Z,13.40
2023-04-10T07:05:42.293Z,13.30
2023-04-10T07:08:11.005Z,13.20
2023-04-10T07:10:39.447Z,13.40
2023-04-10T07:13:09.312Z,13.20
2023-04-10T07:15:37.726Z,13.40
2023-04-10T07:18:07.086Z,13.60
2023-04-10T07:20:35.665Z,13.50
2023-04-10T07:23:04.238Z,13.10
2023-04-10T07:25:32.644Z,12.90
2023-04-10T07:28:01.072Z,13.10
2023-04-10T07:30:30.933Z,13.10
2023-04-10T07:32:59.565Z,13.60
2023-04-10T07:35:28.214Z,13.90
2023-04-10T07:37:56.679Z,14.10
2023-04-10T07:40:25.077Z,14.40
2023-04-10T07:42:53.968Z,14.70
2023-04-10T07:45:22.485Z,14.60
2023-04-10T07:47:52.253Z,14.60
2023-04-10T07:50:20.761Z,14.50
2023-04-10T07:52:50.461Z,14.70
2023-04-10T07:55:18.984Z,14.70
2023-04-10T07:57:47.422Z,14.70
2023-04-10T08:00:16.817Z,14.70
2023-04-10T08:02:45.548Z,14.30
2023-04-10T08:05:15.732Z,14.40
2023-04-10T08:07:44.200Z,14.40
2023-04-10T08:10:12.991Z,14.30
2023-04-10T08:12:41.367Z,14.40
2023-04-10T08:15:10.601Z,14.40
2023-04-10T08:17:39.122Z,14.40
2023-04-10T08:20:09.299Z,14.40
2023-04-10T08:22:39.227Z,14.30
2023-04-10T08:25:08.058Z,14.30
2023-04-10T08:27:36.468Z,14.20
2023-04-10T08:30:05.638Z,14.30
2023-04-10T08:32:34.154Z,14.30
2023-04-10T08:35:02.601Z,14.30
2023-04-10T08:37:31.070Z,14.10
2023-04-10T08:40:00.888Z,14.00
2023-04-10T08:42:29.323Z,13.90
2023-04-10T08:44:57.753Z,13.80
2023-04-10T08:47:29.866Z,13.60
2023-04-10T08:49:58.989Z,13.40
2023-04-10T08:52:27.808Z,13.50
2023-04-10T08:54:58.343Z,13.60
2023-04-10T08:57:28.300Z,13.20
2023-04-10T09:00:01.993Z,13.30
2023-04-10T09:02:32.881Z,13.50
2023-04-10T09:05:01.931Z,13.50
2023-04-10T09:07:30.429Z,13.50
2023-04-10T09:09:58.948Z,13.30
2023-04-10T09:12:28.770Z,13.30
2023-04-10T09:14:58.429Z,13.40
2023-04-10T09:17:26.853Z,13.40
2023-04-10T09:19:56.104Z,13.40
2023-04-10T09:22:31.967Z,13.20
2023-04-10T09:25:01.241Z,13.30
2023-04-10T09:27:36.064Z,13.30
2023-04-10T09:30:05.877Z,13.10
2023-04-10T09:32:39.734Z,12.90
2023-04-10T09:35:09.574Z,13.20
2023-04-10T09:37:38.817Z,13.20
2023-04-10T09:40:08.820Z,13.30
2023-04-10T09:42:39.076Z,13.30
2023-04-10T09:45:08.071Z,13.40
2023-04-10T09:47:36.486Z,13.40
2023-04-10T09:50:05.587Z,13.50
2023-04-10T09:52:35.621Z,13.60
2023-04-10T09:55:06.309Z,13.80
2023-04-10T09:57:35.710Z,13.70
2023-04-10T10:00:08.326Z,13.60
2023-04-10T10:02:39.388Z,13.50
2023-04-10T10:05:08.604Z,13.40
2023-04-10T10:07:37.626Z,13.30
2023-04-10T10:10:09.086Z,13.40
2023-04-10T10:12:44.910Z,13.40
2023-04-10T10:15:18.201Z,13.60
2023-04-10T10:17:51.061Z,13.60
2023-04-10T10:20:19.919Z,13.60
2023-04-10T10:22:49.427Z,13.70
2023-04-10T10:25:18.178Z,13.60
2023-04-10T10:27:47.964Z,13.60
2023-04-10T10:30:29.568Z,13.50
2023-04-10T10:33:00.258Z,13.20
2023-04-10T10:35:30.070Z,13.10
2023-04-10T10:37:59.961Z,13.20
2023-04-10T10:40:30.943Z,13.40
2023-04-10T10:43:08.315Z,13.40
2023-04-10T10:45:42.473Z,13.40
2023-04-10T10:48:11.320Z,13.50
2023-04-10T10:50:54.143Z,13.60
2023-04-10T10:53:36.922Z,13.70
2023-04-10T10:56:37.177Z,13.70
2023-04-10T10:59:05.671Z,13.60
2023-04-10T11:01:35.527Z,13.50
2023-04-10T11:04:43.964Z,13.30
2023-04-10T11:07:12.494Z,13.30
2023-04-10T11:09:51.947Z,13.40
2023-04-10T11:12:22.425Z,13.60
2023-04-10T11:14:59.333Z,13.80
2023-04-10T11:17:55.688Z,14.00
2023-04-10T11:20:27.302Z,14.10
2023-04-10T11:23:10.111Z,14.20
2023-04-10T11:25:52.023Z,14.30
2023-04-10T11:28:36.045Z,14.30
2023-04-10T11:31:26.173Z,14.10
2023-04-10T11:34:06.048Z,14.10
2023-04-10T11:36:35.941Z,13.90
2023-04-10T11:39:06.101Z,13.90
2023-04-10T11:41:35.541Z,13.90
2023-04-10T11:44:07.049Z,13.90
2023-04-10T11:46:38.320Z,14.00
2023-04-10T11:49:09.765Z,14.10
2023-04-10T11:51:38.792Z,14.30
2023-04-10T11:54:09.008Z,14.40
2023-04-10T11:56:38.057Z,14.50
2023-04-10T11:59:10.881Z,14.60
2023-04-10T12:01:42.731Z,14.70
2023-04-10T12:04:17.237Z,14.90
2023-04-10T12:06:46.974Z,15.00
2023-04-10T12:09:17.477Z,15.00
2023-04-10T12:11:53.274Z,15.10
2023-04-10T12:14:22.772Z,15.20
2023-04-10T12:16:51.739Z,15.30
2023-04-10T12:19:22.567Z,15.30
2023-04-10T12:21:51.333Z,15.30
2023-04-10T12:24:44.415Z,15.30
2023-04-10T12:27:19.190Z,15.10
2023-04-10T12:29:48.596Z,14.80
2023-04-10T12:32:17.173Z,14.80
2023-04-10T12:34:53.002Z,14.80
2023-04-10T12:37:21.658Z,14.80
2023-04-10T12:39:50.485Z,14.80
2023-04-10T12:42:20.880Z,14.80
2023-04-10T12:44:53.694Z,14.70
2023-04-10T12:47:22.116Z,14.70
2023-04-10T12:50:11.580Z,14.70
2023-04-10T12:52:41.507Z,14.80
2023-04-10T12:55:14.623Z,14.90
2023-04-10T12:57:44.649Z,14.90
2023-04-10T13:00:15.054Z,15.10
2023-04-10T13:02:44.033Z,15.20
2023-04-10T13:05:14.128Z,15.30
2023-04-10T13:07:43.195Z,15.40
2023-04-10T13:10:11.847Z,15.40
2023-04-10T13:12:41.976Z,15.50
2023-04-10T13:15:18.528Z,15.50
2023-04-10T13:17:47.204Z,15.60
2023-04-10T13:20:15.774Z,15.60
2023-04-10T13:22:44.209Z,15.70
2023-04-10T13:25:12.690Z,15.60
2023-04-10T13:27:41.105Z,15.50
2023-04-10T13:30:10.434Z,15.50
2023-04-10T13:32:41.084Z,15.30
2023-04-10T13:35:10.115Z,15.40
2023-04-10T13:37:38.633Z,15.30
2023-04-10T13:40:08.509Z,15.40
2023-04-10T13:42:39.340Z,15.60
2023-04-10T13:45:09.861Z,15.60
2023-04-10T13:47:39.833Z,15.60
2023-04-10T13:50:09.110Z,15.70
2023-04-10T13:52:37.514Z,15.70
2023-04-10T13:55:06.812Z,15.70
2023-04-10T13:57:35.332Z,15.70
2023-04-10T14:00:04.777Z,15.60
2023-04-10T14:02:34.059Z,15.60
2023-04-10T14:05:04.963Z,15.50
2023-04-10T14:07:35.991Z,15.50
2023-04-10T14:10:04.986Z,15.50
2023-04-10T14:12:34.317Z,15.40
2023-04-10T14:15:03.980Z,15.50
2023-04-10T14:17:32.413Z,15.50
2023-04-10T14:20:01.749Z,15.50
2023-04-10T14:22:31.752Z,15.40
2023-04-10T14:25:11.798Z,15.50
2023-04-10T14:27:41.338Z,15.50
2023-04-10T14:30:10.584Z,15.50
2023-04-10T14:32:40.034Z,15.50
2023-04-10T14:35:09.387Z,15.50
2023-04-10T14:37:39.712Z,15.50
2023-04-10T14:40:09.380Z,15.50
2023-04-10T14:42:37.893Z,15.50
2023-04-10T14:45:07.237Z,15.50
2023-04-10T14:47:36.396Z,15.40
2023-04-10T14:50:05.329Z,15.30
2023-04-10T14:52:33.774Z,15.20
2023-04-10T14:55:03.788Z,15.20
2023-04-10T14:57:32.204Z,15.20
2023-04-10T15:00:01.403Z,15.20
2023-04-10T15:02:30.625Z,15.20
2023-04-10T15:04:59.108Z,15.10
2023-04-10T15:07:28.305Z,15.20
2023-04-10T15:09:57.923Z,15.20
2023-04-10T15:12:27.716Z,15.10
2023-04-10T15:14:56.113Z,15.00
2023-04-10T15:17:25.025Z,15.10
2023-04-10T15:19:53.496Z,15.10
2023-04-10T15:22:21.989Z,15.10
2023-04-10T15:24:51.083Z,15.00
2023-04-10T15:27:21.125Z,14.90
2023-04-10T15:29:51.279Z,14.90
2023-04-10T15:32:19.932Z,14.90
2023-04-10T15:34:48.339Z,14.90
2023-04-10T15:37:16.801Z,14.80
2023-04-10T15:39:45.291Z,14.80
2023-04-10T15:42:13.775Z,14.70
2023-04-10T15:44:42.413Z,14.80
2023-04-10T15:47:12.330Z,14.70
2023-04-10T15:49:40.751Z,14.70
2023-04-10T15:52:09.368Z,14.80
2023-04-10T15:54:40.437Z,14.70
2023-04-10T15:57:08.910Z,14.80
2023-04-10T15:59:38.304Z,14.80
2023-04-10T16:02:07.092Z,14.70
2023-04-10T16:04:37.012Z,14.70
2023-04-10T16:07:05.443Z,14.70
2023-04-10T16:09:33.885Z,14.70
2023-04-10T16:12:03.225Z,14.70
2023-04-10T16:14:31.684Z,14.60
2023-04-10T16:17:00.064Z,14.50
2023-04-10T16:19:31.422Z,14.50
2023-04-10T16:22:01.281Z,14.40
2023-04-10T16:24:30.006Z,14.40
2023-04-10T16:26:58.405Z,14.30
2023-04-10T16:29:26.837Z,14.20
2023-04-10T16:31:55.313Z,14.20
2023-04-10T16:34:23.871Z,14.20
2023-04-10T16:36:52.287Z,14.10
2023-04-10T16:39:22.116Z,14.10
2023-04-10T16:41:50.606Z,14.10
2023-04-10T16:44:19.031Z,14.00
2023-04-10T16:46:47.601Z,13.90
2023-04-10T16:49:17.522Z,13.90
2023-04-10T16:51:45.904Z,13.80
2023-04-10T16:54:14.818Z,13.80
2023-04-10T16:56:44.565Z,13.70
2023-04-10T16:59:12.992Z,13.60
2023-04-10T17:01:41.519Z,13.50
2023-04-10T17:04:10.476Z,13.50
2023-04-10T17:06:39.014Z,13.50
2023-04-10T17:09:07.493Z,13.40
2023-04-10T17:11:36.023Z,13.40
2023-04-10T17:14:06.584Z,13.40
2023-04-10T17:16:35.059Z,13.30
2023-04-10T17:19:03.608Z,13.20
2023-04-10T17:21:32.129Z,13.20
2023-04-10T17:24:00.584Z,13.20
2023-04-10T17:26:29.247Z,13.10
2023-04-10T17:28:57.634Z,12.90
2023-04-10T17:31:27.515Z,12.90
2023-04-10T17:33:56.033Z,12.80
2023-04-10T17:36:24.481Z,12.70
2023-04-10T17:38:54.177Z,12.60
2023-04-10T17:41:22.903Z,12.60
2023-04-10T17:43:51.751Z,12.40
2023-04-10T17:46:20.273Z,12.20
2023-04-10T17:48:50.203Z,12.10
2023-04-10T17:51:18.654Z,11.90
2023-04-10T17:53:47.229Z,11.80
2023-04-10T17:56:19.842Z,11.70
2023-04-10T17:58:48.432Z,11.60
2023-04-10T18:01:22.900Z,11.50
2023-04-10T18:03:52.969Z,11.20
2023-04-10T18:06:21.430Z,11.10
2023-04-10T18:08:50.248Z,11.00
2023-04-10T18:11:19.033Z,11.00
2023-04-10T18:13:48.295Z,10.80
2023-04-10T18:16:17.469Z,10.60
2023-04-10T18:18:46.061Z,10.30
2023-04-10T18:21:16.080Z,10.20
2023-04-10T18:23:45.414Z,10.20
2023-04-10T18:26:14.223Z,10.00
2023-04-10T18:28:43.548Z,10.00
2023-04-10T18:31:14.755Z,9.90
2023-04-10T18:33:43.518Z,9.90
2023-04-10T18:36:14.055Z,9.80
2023-04-10T18:38:44.148Z,9.80
2023-04-10T18:41:12.542Z,9.70
2023-04-10T18:43:41.440Z,9.50
2023-04-10T18:46:10.793Z,9.40
2023-04-10T18:48:42.710Z,9.50
2023-04-10T18:51:11.660Z,9.40
2023-04-10T18:53:40.954Z,9.20
2023-04-10T18:56:10.852Z,9.30
2023-04-10T18:58:39.288Z,9.20
2023-04-10T19:01:08.390Z,9.20
2023-04-10T19:03:37.385Z,9.10
2023-04-10T19:06:06.298Z,9.00
2023-04-10T19:08:34.844Z,9.00
2023-04-10T19:11:05.487Z,9.00
2023-04-10T19:13:35.559Z,8.90
2023-04-10T19:16:05.560Z,8.80
2023-04-10T19:18:34.010Z,8.80
2023-04-10T19:21:02.682Z,8.70
2023-04-10T19:23:31.108Z,8.60
2023-04-10T19:26:00.312Z,8.60
2023-04-10T19:28:30.891Z,8.50
2023-04-10T19:31:00.731Z,8.40
2023-04-10T19:33:29.913Z,8.40
2023-04-10T19:35:59.186Z,8.30
2023-04-10T19:38:29.259Z,8.20
2023-04-10T19:40:57.755Z,8.10
2023-04-10T19:43:26.354Z,8.10
2023-04-10T19:45:55.150Z,8.00
2023-04-10T19:48:24.923Z,8.00
2023-04-10T19:50:53.417Z,7.90
2023-04-10T19:53:21.839Z,8.00
2023-04-10T19:55:50.482Z,7.90
2023-04-10T19:58:36.003Z,8.00
2023-04-10T20:01:08.661Z,7.80
2023-04-10T20:03:38.808Z,7.60
2023-04-10T20:06:08.421Z,7.50
2023-04-10T20:08:37.342Z,7.40
2023-04-10T20:11:06.881Z,7.20
2023-04-10T20:13:35.564Z,7.10
2023-04-10T20:16:04.027Z,7.10
2023-04-10T20:18:32.862Z,6.90
2023-04-10T20:21:02.685Z,7.00
2023-04-10T20:23:31.161Z,6.90
2023-04-10T20:25:59.558Z,6.90
2023-04-10T20:28:27.980Z,6.90
2023-04-10T20:30:56.408Z,6.70
2023-04-10T20:33:24.945Z,6.70
2023-04-10T20:35:54.163Z,6.60
2023-04-10T20:38:23.948Z,6.50
2023-04-10T20:40:52.499Z,6.50
2023-04-10T20:43:21.342Z,6.60
2023-04-10T20:45:49.747Z,6.60
2023-04-10T20:48:18.197Z,6.60
2023-04-10T20:50:49.075Z,6.60
2023-04-10T20:53:17.641Z,6.60
2023-04-10T20:55:47.429Z,6.50
2023-04-10T20:58:15.843Z,6.40
2023-04-10T21:00:44.333Z,6.40
2023-04-10T21:03:12.909Z,6.40
2023-04-10T21:05:42.103Z,6.40
2023-04-10T21:08:10.858Z,6.40
2023-04-10T21:10:44.048Z,6.40
2023-04-10T21:13:15.085Z,6.40
2023-04-10T21:15:43.746Z,6.20
2023-04-10T21:18:12.445Z,6.10
2023-04-10T21:20:40.978Z,6.10
2023-04-10T21:23:09.395Z,6.10
2023-04-10T21:25:37.922Z,6.10
2023-04-10T21:28:06.416Z,6.10
2023-04-10T21:30:36.181Z,6.10
2023-04-10T21:33:04.789Z,6.00
2023-04-10T21:35:33.255Z,5.90
2023-04-10T21:38:02.424Z,5.90
2023-04-10T21:40:34.218Z,5.80
2023-04-10T21:43:02.965Z,5.70
2023-04-10T21:45:31.488Z,5.70
2023-04-10T21:48:01.355Z,5.70
2023-04-10T21:50:29.980Z,5.50
2023-04-10T21:53:00.126Z,5.40
2023-04-10T21:55:28.613Z,5.50
2023-04-10T21:57:57.400Z,5.50
2023-04-10T22:00:26.309Z,5.30
2023-04-10T22:02:54.984Z,5.30
2023-04-10T22:05:25.349Z,5.40
2023-04-10T22:07:53.834Z,5.50
2023-04-10T22:10:22.268Z,5.40
2023-04-10T22:12:50.676Z,5.40
2023-04-10T22:15:19.696Z,5.20
2023-04-10T22:17:48.191Z,5.20
2023-04-10T22:20:17.124Z,5.30
2023-04-10T22:22:46.900Z,5.20
2023-04-10T22:25:15.651Z,5.30
2023-04-10T22:27:44.051Z,5.20
2023-04-10T22:30:13.454Z,4.90
2023-04-10T22:32:42.138Z,5.00
2023-04-10T22:35:10.666Z,5.00
2023-04-10T22:37:39.099Z,4.80
2023-04-10T22:40:10.354Z,4.80
2023-04-10T22:42:38.859Z,4.80
2023-04-10T22:45:08.579Z,4.60
2023-04-10T22:47:36.918Z,4.50
2023-04-10T22:50:07.236Z,4.70
2023-04-10T22:52:36.057Z,4.70
2023-04-10T22:55:06.784Z,4.80
2023-04-10T22:57:36.542Z,4.90
2023-04-10T23:00:05.612Z,4.90
2023-04-10T23:02:34.075Z,5.00
2023-04-10T23:05:02.885Z,5.00
2023-04-10T23:07:31.420Z,5.00
2023-04-10T23:10:00.704Z,4.90
2023-04-10T23:12:29.257Z,4.90
2023-04-10T23:14:59.209Z,4.90
2023-04-10T23:17:27.627Z,4.90
2023-04-10T23:19:56.100Z,4.90
2023-04-10T23:22:24.651Z,4.90
2023-04-10T23:24:54.795Z,4.90
2023-04-10T23:27:23.555Z,4.80
2023-04-10T23:29:51.981Z,4.80
2023-04-10T23:32:21.714Z,4.80
2023-04-10T23:34:50.135Z,4.70
2023-04-10T23:37:18.590Z,4.60
2023-04-10T23:39:47.002Z,4.50
2023-04-10T23:42:15.504Z,4.50
2023-04-10T23:44:43.913Z,4.40
2023-04-10T23:47:12.627Z,4.40
2023-04-10T23:49:42.512Z,4.10
2023-04-10T23:52:11.530Z,4.10
2023-04-10T23:54:40.476Z,4.20
2023-04-10T23:57:08.950Z,4.20
2023-04-10T23:59:37.301Z,4.20
